createdAt,value
2022-08-16T00:01:17.005Z,18.00
2022-08-16T00:03:45.235Z,18.10
2022-08-16T00:06:13.085Z,18.00
2022-08-16T00:08:45.796Z,18.00
2022-08-16T00:11:15.553Z,17.90
2022-08-16T00:13:53.389Z,17.80
2022-08-16T00:17:05.645Z,17.70
2022-08-16T00:19:22.502Z,17.70
2022-08-16T00:21:51.925Z,17.80
2022-08-16T00:24:31.370Z,17.90
2022-08-16T00:27:01.187Z,17.90
2022-08-16T00:29:29.683Z,18.20
2022-08-16T00:32:00.683Z,18.20
2022-08-16T00:34:43.952Z,18.10
2022-08-16T00:37:17.160Z,17.90
2022-08-16T00:39:47.491Z,18.10
2022-08-16T00:42:30.025Z,18.20
2022-08-16T00:45:06.414Z,18.20
2022-08-16T00:47:36.160Z,18.00
2022-08-16T00:50:08.219Z,18.10
2022-08-16T00:52:50.243Z,18.20
2022-08-16T00:55:22.209Z,18.30
2022-08-16T00:57:58.912Z,18.50
2022-08-16T01:00:29.116Z,18.60
2022-08-16T01:02:58.249Z,18.50
2022-08-16T01:05:25.717Z,18.50
2022-08-16T01:07:54.018Z,18.50
2022-08-16T01:10:32.001Z,18.50
2022-08-16T01:13:05.302Z,18.40
2022-08-16T01:15:34.910Z,18.50
2022-08-16T01:18:04.483Z,18.50
2022-08-16T01:20:34.189Z,18.60
2022-08-16T01:23:11.728Z,18.70
2022-08-16T01:25:42.209Z,18.60
2022-08-16T01:28:20.189Z,18.60
2022-08-16T01:30:52.420Z,18.50
2022-08-16T01:33:20.607Z,18.70
2022-08-16T01:36:09.438Z,18.70
2022-08-16T01:38:48.880Z,18.60
2022-08-16T01:41:26.328Z,18.70
2022-08-16T01:44:01.230Z,18.80
2022-08-16T01:46:40.679Z,18.80
2022-08-16T01:49:11.569Z,18.80
2022-08-16T01:51:41.385Z,18.80
2022-08-16T01:54:11.092Z,18.80
2022-08-16T01:56:41.169Z,18.80
2022-08-16T01:59:16.071Z,18.80
2022-08-16T02:01:49.597Z,18.80
2022-08-16T02:04:48.196Z,18.80
2022-08-16T02:07:11.209Z,18.90
2022-08-16T02:09:39.079Z,18.90
2022-08-16T02:12:39.806Z,18.80
2022-08-16T02:14:54.643Z,18.60
2022-08-16T02:17:21.979Z,18.60
2022-08-16T02:19:58.486Z,18.70
2022-08-16T02:22:35.859Z,18.50
2022-08-16T02:25:14.992Z,18.60
2022-08-16T02:27:43.717Z,18.70
2022-08-16T02:30:35.792Z,18.60
2022-08-16T02:33:04.091Z,18.40
2022-08-16T02:35:32.039Z,18.20
2022-08-16T02:38:01.632Z,18.20
2022-08-16T02:40:36.198Z,17.90
2022-08-16T02:43:04.745Z,17.80
2022-08-16T02:45:32.704Z,17.70
2022-08-16T02:48:29.050Z,17.70
2022-08-16T02:50:53.659Z,17.70
2022-08-16T02:53:30.006Z,17.70
2022-08-16T02:55:57.261Z,17.60
2022-08-16T02:58:25.033Z,17.70
2022-08-16T03:00:55.890Z,17.50
2022-08-16T03:03:25.728Z,17.40
2022-08-16T03:05:53.619Z,17.40
2022-08-16T03:08:49.645Z,17.20
2022-08-16T03:11:20.504Z,17.10
2022-08-16T03:13:53.026Z,17.10
2022-08-16T03:16:37.906Z,17.00
2022-08-16T03:19:07.733Z,17.00
2022-08-16T03:21:38.035Z,17.00
2022-08-16T03:24:28.323Z,17.10
2022-08-16T03:27:01.759Z,16.90
2022-08-16T03:29:32.286Z,16.90
2022-08-16T03:32:01.755Z,16.90
2022-08-16T03:34:30.146Z,17.10
2022-08-16T03:36:57.820Z,17.20
2022-08-16T03:39:25.071Z,17.30
2022-08-16T03:41:59.705Z,17.20
2022-08-16T03:44:43.406Z,17.20
2022-08-16T03:47:12.759Z,17.20
2022-08-16T03:49:47.831Z,17.20
2022-08-16T03:52:23.422Z,17.20
2022-08-16T03:54:57.792Z,17.20
2022-08-16T03:57:32.088Z,17.10
2022-08-16T04:00:36.153Z,17.10
2022-08-16T04:03:09.144Z,17.00
2022-08-16T04:05:39.014Z,17.10
2022-08-16T04:08:22.481Z,17.10
2022-08-16T04:10:52.564Z,16.90
2022-08-16T04:13:59.062Z,16.90
2022-08-16T04:16:07.879Z,16.90
2022-08-16T04:18:39.500Z,17.00
2022-08-16T04:21:07.005Z,17.00
2022-08-16T04:23:34.757Z,16.90
2022-08-16T04:26:05.018Z,17.10
2022-08-16T04:28:53.449Z,17.00
2022-08-16T04:31:20.102Z,17.00
2022-08-16T04:33:47.414Z,17.00
2022-08-16T04:36:20.059Z,17.20
2022-08-16T04:38:49.996Z,17.30
2022-08-16T04:41:18.020Z,17.40
2022-08-16T04:43:45.533Z,17.30
2022-08-16T04:46:26.573Z,17.30
2022-08-16T04:49:02.754Z,17.40
2022-08-16T04:51:35.767Z,17.60
2022-08-16T04:54:03.734Z,17.70
2022-08-16T04:56:31.465Z,17.60
2022-08-16T04:58:58.806Z,17.70
2022-08-16T05:01:58.337Z,17.80
2022-08-16T05:04:19.574Z,17.50
2022-08-16T05:06:47.391Z,17.60
2022-08-16T05:09:16.338Z,17.70
2022-08-16T05:11:43.803Z,17.70
2022-08-16T05:14:11.202Z,17.80
2022-08-16T05:16:47.811Z,17.90
2022-08-16T05:19:19.487Z,18.00
2022-08-16T05:21:46.895Z,18.20
2022-08-16T05:24:14.278Z,18.30
2022-08-16T05:26:51.971Z,18.30
2022-08-16T05:29:20.633Z,18.40
2022-08-16T05:31:53.064Z,18.50
2022-08-16T05:34:22.485Z,18.60
2022-08-16T05:36:51.152Z,18.70
2022-08-16T05:39:20.659Z,18.80
2022-08-16T05:41:51.953Z,18.90
2022-08-16T05:44:23.927Z,19.10
2022-08-16T05:46:55.100Z,19.10
2022-08-16T05:49:24.036Z,19.20
2022-08-16T05:51:51.407Z,19.10
2022-08-16T05:54:25.600Z,19.10
2022-08-16T05:56:53.656Z,19.30
2022-08-16T05:59:22.077Z,19.40
2022-08-16T06:01:50.972Z,19.30
2022-08-16T06:04:35.237Z,19.40
2022-08-16T06:07:06.824Z,19.50
2022-08-16T06:09:43.216Z,19.70
2022-08-16T06:12:27.400Z,20.10
2022-08-16T06:15:04.229Z,20.30
2022-08-16T06:17:42.508Z,20.20
2022-08-16T06:20:14.987Z,20.50
2022-08-16T06:22:47.653Z,20.70
2022-08-16T06:25:35.480Z,21.40
2022-08-16T06:28:08.433Z,21.70
2022-08-16T06:30:43.365Z,22.00
2022-08-16T06:33:12.779Z,22.10
2022-08-16T06:35:41.718Z,22.30
2022-08-16T06:38:31.983Z,22.80
2022-08-16T06:40:57.258Z,23.10
2022-08-16T06:43:27.584Z,23.40
2022-08-16T06:45:55.360Z,23.80
2022-08-16T06:48:32.921Z,23.70
2022-08-16T06:51:05.780Z,23.90
2022-08-16T06:53:35.687Z,25.00
2022-08-16T06:56:06.238Z,25.40
2022-08-16T06:58:41.671Z,26.20
2022-08-16T07:01:09.769Z,26.20
2022-08-16T07:03:55.140Z,26.00
2022-08-16T07:06:26.654Z,26.30
2022-08-16T07:08:55.004Z,26.60
2022-08-16T07:11:47.644Z,26.80
2022-08-16T07:14:23.534Z,26.20
2022-08-16T07:16:53.619Z,26.50
2022-08-16T07:19:20.994Z,26.60
2022-08-16T07:21:59.367Z,26.30
2022-08-16T07:24:30.906Z,26.30
2022-08-16T07:27:01.587Z,25.90
2022-08-16T07:29:31.759Z,26.10
2022-08-16T07:32:00.780Z,26.00
2022-08-16T07:34:35.137Z,25.70
2022-08-16T07:37:09.633Z,25.50
2022-08-16T07:39:43.068Z,25.60
2022-08-16T07:42:20.092Z,25.80
2022-08-16T07:44:53.493Z,25.50
2022-08-16T07:47:24.388Z,25.60
2022-08-16T07:49:57.777Z,25.50
2022-08-16T07:52:29.934Z,25.10
2022-08-16T07:54:58.298Z,24.70
2022-08-16T07:57:26.310Z,24.70
2022-08-16T07:59:54.050Z,25.10
2022-08-16T08:02:27.302Z,24.80
2022-08-16T08:04:56.379Z,25.00
2022-08-16T08:07:27.490Z,24.60
2022-08-16T08:09:55.494Z,24.80
2022-08-16T08:12:31.824Z,25.10
2022-08-16T08:15:04.728Z,24.90
2022-08-16T08:17:42.884Z,25.40
2022-08-16T08:20:28.720Z,25.50
2022-08-16T08:22:59.947Z,26.00
2022-08-16T08:25:54.789Z,26.20
2022-08-16T08:28:17.274Z,25.90
2022-08-16T08:30:51.739Z,26.20
2022-08-16T08:33:28.396Z,25.90
2022-08-16T08:36:00.975Z,25.40
2022-08-16T08:38:45.071Z,25.20
2022-08-16T08:41:18.322Z,25.60
2022-08-16T08:43:50.502Z,25.90
2022-08-16T08:46:21.675Z,25.40
2022-08-16T08:49:02.079Z,25.50
2022-08-16T08:51:35.839Z,26.00
2022-08-16T08:54:09.659Z,26.00
2022-08-16T08:56:45.402Z,26.30
2022-08-16T08:59:19.924Z,26.20
2022-08-16T09:01:56.718Z,26.10
2022-08-16T09:04:29.695Z,26.00
2022-08-16T09:07:01.094Z,25.90
2022-08-16T09:09:33.581Z,25.70
2022-08-16T09:12:06.123Z,25.50
2022-08-16T09:14:36.173Z,25.90
2022-08-16T09:17:21.518Z,26.10
2022-08-16T09:19:55.620Z,26.20
2022-08-16T09:22:24.989Z,26.10
2022-08-16T09:24:54.069Z,26.10
2022-08-16T09:27:46.747Z,26.50
2022-08-16T09:30:33.868Z,26.60
2022-08-16T09:33:06.745Z,26.80
2022-08-16T09:35:39.005Z,26.90
2022-08-16T09:38:08.690Z,26.90
2022-08-16T09:40:41.805Z,26.60
2022-08-16T09:43:46.371Z,26.60
2022-08-16T09:46:04.092Z,26.90
2022-08-16T09:48:53.431Z,27.30
2022-08-16T09:51:36.938Z,27.30
2022-08-16T09:54:06.034Z,27.50
2022-08-16T09:56:37.722Z,27.30
2022-08-16T09:59:08.683Z,27.20
2022-08-16T10:01:38.456Z,27.30
2022-08-16T10:04:29.679Z,27.30
2022-08-16T10:09:45.180Z,27.40
2022-08-16T10:12:42.530Z,27.40
2022-08-16T10:15:15.592Z,27.50
2022-08-16T10:17:59.944Z,27.70
2022-08-16T10:20:34.076Z,27.80
2022-08-16T10:23:07.635Z,27.60
2022-08-16T10:27:16.986Z,27.70
2022-08-16T10:28:32.031Z,27.60
2022-08-16T10:31:04.198Z,26.80
2022-08-16T10:33:33.589Z,27.10
2022-08-16T10:36:03.808Z,27.20
2022-08-16T10:38:36.832Z,27.40
2022-08-16T10:41:08.002Z,27.60
2022-08-16T10:43:38.633Z,27.30
2022-08-16T10:46:33.893Z,27.50
2022-08-16T10:48:55.152Z,27.70
2022-08-16T10:51:34.385Z,27.80
2022-08-16T10:54:29.475Z,27.90
2022-08-16T10:57:00.720Z,28.00
2022-08-16T10:59:45.035Z,28.10
2022-08-16T11:02:56.917Z,27.90
2022-08-16T11:05:08.697Z,27.90
2022-08-16T11:07:51.374Z,27.70
2022-08-16T11:19:05.972Z,27.70
2022-08-16T11:22:39.247Z,27.80
2022-08-16T11:24:41.303Z,27.90
2022-08-16T11:27:23.623Z,27.80
2022-08-16T11:29:53.540Z,27.50
2022-08-16T11:32:31.833Z,27.40
2022-08-16T11:35:14.577Z,27.80
2022-08-16T11:38:23.370Z,28.00
2022-08-16T11:40:58.111Z,28.20
2022-08-16T11:43:34.109Z,28.10
2022-08-16T11:46:44.276Z,28.10
2022-08-16T11:48:52.356Z,28.20
2022-08-16T11:51:19.779Z,28.30
2022-08-16T11:53:47.615Z,28.30
2022-08-16T11:56:15.170Z,28.40
2022-08-16T11:58:42.685Z,28.40
2022-08-16T12:01:19.136Z,28.40
2022-08-16T12:03:57.312Z,28.40
2022-08-16T12:06:30.604Z,28.40
2022-08-16T12:09:02.246Z,28.50
2022-08-16T12:11:31.506Z,28.70
2022-08-16T12:14:01.324Z,28.60
2022-08-16T12:16:34.456Z,28.90
2022-08-16T12:19:06.530Z,28.90
2022-08-16T12:21:57.674Z,28.90
2022-08-16T12:24:27.174Z,28.60
2022-08-16T12:26:54.712Z,28.50
2022-08-16T12:29:22.431Z,28.80
2022-08-16T12:32:01.029Z,29.00
2022-08-16T12:34:50.479Z,28.90
2022-08-16T12:37:20.027Z,29.00
2022-08-16T12:39:51.249Z,29.10
2022-08-16T12:42:20.781Z,28.90
2022-08-16T12:44:50.300Z,28.50
2022-08-16T12:47:37.196Z,28.40
2022-08-16T12:50:07.618Z,28.60
2022-08-16T12:52:52.424Z,28.50
2022-08-16T12:55:22.773Z,28.40
2022-08-16T12:57:58.648Z,28.50
2022-08-16T13:00:33.535Z,28.60
2022-08-16T13:03:02.350Z,28.90
2022-08-16T13:08:00.731Z,28.60
2022-08-16T13:10:37.039Z,28.40
2022-08-16T13:13:06.490Z,28.50
2022-08-16T13:15:57.159Z,28.70
2022-08-16T13:18:33.437Z,28.60
2022-08-16T13:21:02.256Z,28.70
2022-08-16T13:23:30.544Z,28.40
2022-08-16T13:25:58.197Z,28.60
2022-08-16T13:28:26.240Z,28.90
2022-08-16T13:30:55.078Z,29.00
2022-08-16T13:33:29.840Z,28.70
2022-08-16T13:35:59.410Z,28.60
2022-08-16T13:38:30.223Z,28.20
2022-08-16T13:41:02.994Z,28.10
2022-08-16T13:43:32.506Z,28.30
2022-08-16T13:46:04.472Z,28.30
2022-08-16T13:48:42.799Z,28.50
2022-08-16T13:51:16.828Z,28.70
2022-08-16T13:53:58.285Z,28.70
2022-08-16T13:56:34.551Z,28.90
2022-08-16T13:59:14.299Z,29.00
2022-08-16T14:01:55.725Z,29.10
2022-08-16T14:04:28.961Z,29.10
2022-08-16T14:06:57.570Z,29.10
2022-08-16T14:09:27.054Z,29.10
2022-08-16T14:11:55.457Z,29.00
2022-08-16T14:14:29.330Z,29.00
2022-08-16T14:17:01.570Z,29.10
2022-08-16T14:19:29.961Z,29.00
2022-08-16T14:22:14.266Z,29.00
2022-08-16T14:24:47.203Z,28.90
2022-08-16T14:27:19.518Z,28.70
2022-08-16T14:29:49.023Z,28.70
2022-08-16T14:32:32.771Z,28.80
2022-08-16T14:35:04.249Z,28.80
2022-08-16T14:37:32.023Z,28.90
2022-08-16T14:40:00.474Z,28.90
2022-08-16T14:42:29.509Z,28.80
2022-08-16T14:44:57.390Z,28.70
2022-08-16T14:47:34.105Z,28.80
2022-08-16T14:50:02.605Z,29.00
2022-08-16T14:52:55.284Z,29.00
2022-08-16T14:55:18.320Z,28.90
2022-08-16T14:57:48.222Z,28.90
2022-08-16T15:00:20.573Z,28.70
2022-08-16T15:02:55.777Z,28.60
2022-08-16T15:05:24.520Z,28.60
2022-08-16T15:07:53.076Z,28.70
2022-08-16T15:10:24.263Z,28.50
2022-08-16T15:12:56.251Z,28.40
2022-08-16T15:15:26.849Z,28.40
2022-08-16T15:17:56.948Z,28.40
2022-08-16T15:20:29.519Z,28.10
2022-08-16T15:22:58.572Z,28.20
2022-08-16T15:25:29.266Z,28.10
2022-08-16T15:27:58.644Z,28.20
2022-08-16T15:30:57.082Z,28.20
2022-08-16T15:33:21.428Z,27.90
2022-08-16T15:35:52.891Z,27.90
2022-08-16T15:38:54.766Z,28.00
2022-08-16T15:41:27.672Z,27.90
2022-08-16T15:44:03.463Z,27.90
2022-08-16T15:46:54.677Z,27.90
2022-08-16T15:49:38.158Z,27.90
2022-08-16T15:52:21.162Z,27.90
2022-08-16T15:54:57.344Z,28.00
2022-08-16T15:57:25.652Z,27.80
2022-08-16T15:59:55.870Z,28.30
2022-08-16T16:02:30.723Z,27.70
2022-08-16T16:05:00.588Z,27.70
2022-08-16T16:07:30.238Z,27.70
2022-08-16T16:09:59.634Z,27.60
2022-08-16T16:15:19.767Z,27.80
2022-08-16T16:17:51.236Z,27.60
2022-08-16T16:20:20.904Z,27.70
2022-08-16T16:22:49.956Z,27.70
2022-08-16T16:25:18.407Z,27.70
2022-08-16T16:27:45.834Z,27.70
2022-08-16T16:30:37.853Z,27.60
2022-08-16T16:33:03.087Z,27.60
2022-08-16T16:35:32.956Z,27.60
2022-08-16T16:38:01.330Z,27.50
2022-08-16T16:40:35.550Z,27.50
2022-08-16T16:43:03.262Z,27.50
2022-08-16T16:45:34.736Z,27.50
2022-08-16T16:48:12.732Z,27.30
2022-08-16T16:50:44.562Z,27.30
2022-08-16T16:53:17.440Z,27.20
2022-08-16T16:55:47.705Z,27.20
2022-08-16T16:58:43.182Z,27.10
2022-08-16T17:01:11.267Z,27.20
2022-08-16T17:03:39.094Z,27.10
2022-08-16T17:06:09.356Z,27.00
2022-08-16T17:08:41.423Z,26.80
2022-08-16T17:11:10.644Z,26.80
2022-08-16T17:13:39.106Z,26.80
2022-08-16T17:16:07.905Z,26.70
2022-08-16T17:19:15.610Z,26.60
2022-08-16T17:21:25.157Z,26.50
2022-08-16T17:23:59.167Z,26.40
2022-08-16T17:26:29.743Z,26.40
2022-08-16T17:29:16.572Z,26.10
2022-08-16T17:31:47.038Z,25.90
2022-08-16T17:34:30.649Z,25.80
2022-08-16T17:37:05.452Z,25.50
2022-08-16T17:40:00.630Z,25.20
2022-08-16T17:42:33.727Z,25.20
2022-08-16T17:45:01.376Z,25.00
2022-08-16T17:47:28.881Z,24.70
2022-08-16T17:49:57.211Z,24.60
2022-08-16T17:52:25.154Z,24.40
2022-08-16T17:54:52.458Z,24.30
2022-08-16T17:57:19.907Z,24.00
2022-08-16T17:59:50.447Z,24.10
2022-08-16T18:02:44.097Z,23.80
2022-08-16T18:05:15.005Z,23.70
2022-08-16T18:07:42.760Z,23.70
2022-08-16T18:10:11.553Z,23.50
2022-08-16T18:12:51.270Z,23.50
2022-08-16T18:15:23.733Z,23.40
2022-08-16T18:17:53.621Z,23.20
2022-08-16T18:20:42.626Z,23.00
2022-08-16T18:23:18.950Z,22.90
2022-08-16T18:25:53.783Z,22.80
2022-08-16T18:28:21.500Z,22.90
2022-08-16T18:30:51.655Z,22.60
2022-08-16T18:33:22.188Z,22.30
2022-08-16T18:35:53.117Z,22.30
2022-08-16T18:38:23.255Z,22.20
2022-08-16T18:40:51.080Z,22.20
2022-08-16T18:43:21.531Z,22.00
2022-08-16T18:46:08.926Z,21.70
2022-08-16T18:48:36.300Z,21.60
2022-08-16T18:51:10.327Z,21.70
2022-08-16T18:53:40.748Z,21.50
2022-08-16T18:56:08.312Z,21.60
2022-08-16T18:58:35.932Z,21.60
2022-08-16T19:01:03.402Z,21.60
2022-08-16T19:03:32.220Z,21.40
2022-08-16T19:06:13.561Z,21.30
2022-08-16T19:08:42.059Z,21.30
2022-08-16T19:11:14.112Z,21.40
2022-08-16T19:13:44.436Z,21.20
2022-08-16T19:16:12.294Z,21.20
2022-08-16T19:18:39.942Z,20.90
2022-08-16T19:21:07.791Z,20.80
2022-08-16T19:23:37.045Z,20.90
2022-08-16T19:26:11.049Z,20.70
2022-08-16T19:28:58.865Z,20.60
2022-08-16T19:31:31.432Z,20.70
2022-08-16T19:33:59.172Z,20.50
2022-08-16T19:36:36.289Z,20.60
2022-08-16T19:39:15.283Z,20.60
2022-08-16T19:41:53.530Z,20.50
2022-08-16T19:44:22.968Z,20.40
2022-08-16T19:46:51.331Z,20.10
2022-08-16T19:49:18.685Z,19.80
2022-08-16T19:51:47.059Z,19.80
2022-08-16T19:54:14.825Z,19.90
2022-08-16T19:56:42.113Z,19.80
2022-08-16T19:59:19.502Z,19.80
2022-08-16T20:01:49.610Z,20.00
2022-08-16T20:04:16.978Z,20.20
2022-08-16T20:06:44.313Z,20.10
2022-08-16T20:09:15.168Z,20.00
2022-08-16T20:11:46.761Z,20.00
2022-08-16T20:14:19.275Z,19.80
2022-08-16T20:16:53.101Z,19.80
2022-08-16T20:19:20.660Z,19.80
2022-08-16T20:21:48.030Z,19.70
2022-08-16T20:24:33.289Z,19.70
2022-08-16T20:27:02.240Z,19.50
2022-08-16T20:29:29.701Z,19.60
2022-08-16T20:31:57.052Z,19.50
2022-08-16T20:34:24.644Z,19.30
2022-08-16T20:36:52.097Z,19.20
2022-08-16T20:39:19.584Z,19.00
2022-08-16T20:41:46.970Z,18.80
2022-08-16T20:44:14.644Z,18.80
2022-08-16T20:46:42.217Z,18.70
2022-08-16T20:49:10.195Z,18.70
2022-08-16T20:51:49.428Z,18.80
2022-08-16T20:54:19.163Z,18.70
2022-08-16T20:56:46.529Z,18.80
2022-08-16T20:59:13.851Z,18.60
2022-08-16T21:01:46.378Z,18.50
2022-08-16T21:04:21.992Z,18.50
2022-08-16T21:06:53.684Z,18.70
2022-08-16T21:09:26.297Z,18.70
2022-08-16T21:11:54.645Z,18.40
2022-08-16T21:14:22.462Z,18.50
2022-08-16T21:16:50.280Z,18.40
2022-08-16T21:19:17.913Z,18.50
2022-08-16T21:21:45.220Z,18.50
2022-08-16T21:24:12.728Z,18.50
2022-08-16T21:26:40.440Z,18.60
2022-08-16T21:29:11.361Z,18.40
2022-08-16T21:31:43.835Z,18.50
2022-08-16T21:34:11.614Z,18.20
2022-08-16T21:36:38.895Z,18.10
2022-08-16T21:39:06.803Z,17.70
2022-08-16T21:41:35.345Z,17.80
2022-08-16T21:44:02.909Z,17.80
2022-08-16T21:46:30.334Z,17.90
2022-08-16T21:48:57.731Z,17.90
2022-08-16T21:51:25.149Z,17.70
2022-08-16T21:53:52.625Z,17.60
2022-08-16T21:56:20.034Z,17.60
2022-08-16T21:58:52.709Z,17.60
2022-08-16T22:01:23.427Z,17.70
2022-08-16T22:04:27.190Z,17.70
2022-08-16T22:06:39.674Z,17.80
2022-08-16T22:09:07.539Z,18.00
2022-08-16T22:11:35.021Z,17.80
2022-08-16T22:14:02.749Z,17.70
2022-08-16T22:16:32.536Z,17.40
2022-08-16T22:19:01.004Z,17.30
2022-08-16T22:21:28.632Z,17.30
2022-08-16T22:23:57.343Z,17.20
2022-08-16T22:26:31.851Z,17.10
2022-08-16T22:29:05.313Z,17.30
2022-08-16T22:31:33.160Z,17.20
2022-08-16T22:34:02.137Z,17.40
2022-08-16T22:36:30.465Z,17.60
2022-08-16T22:38:58.970Z,17.50
2022-08-16T22:41:27.640Z,17.40
2022-08-16T22:43:55.208Z,17.40
2022-08-16T22:46:22.725Z,17.40
2022-08-16T22:48:50.782Z,17.20
2022-08-16T22:51:22.136Z,17.00
2022-08-16T22:53:49.570Z,16.90
2022-08-16T22:56:17.709Z,17.00
2022-08-16T22:58:45.968Z,16.80
2022-08-16T23:01:13.635Z,16.60
2022-08-16T23:03:41.276Z,16.80
2022-08-16T23:06:08.787Z,16.80
2022-08-16T23:08:40.572Z,16.90
2022-08-16T23:11:10.779Z,16.80
2022-08-16T23:13:38.188Z,16.70
2022-08-16T23:16:21.821Z,16.60
2022-08-16T23:18:49.760Z,16.70
2022-08-16T23:21:18.275Z,16.80
2022-08-16T23:23:47.443Z,16.60
2022-08-16T23:26:46.369Z,16.70
2022-08-16T23:29:04.851Z,17.80
2022-08-16T23:31:33.193Z,16.40
2022-08-16T23:34:00.581Z,16.30
2022-08-16T23:36:28.004Z,16.30
2022-08-16T23:38:55.675Z,16.40
2022-08-16T23:41:24.152Z,16.30
2022-08-16T23:43:51.392Z,16.30
2022-08-16T23:46:19.626Z,16.50
2022-08-16T23:49:58.779Z,16.40
2022-08-16T23:51:35.055Z,16.20
2022-08-16T23:54:02.791Z,16.20
2022-08-16T23:56:40.200Z,16.00
2022-08-16T23:59:08.466Z,15.90
